Time;durP1;ratioP1;P1;durP2;ratioP2;P2;SDS_P1;SDS_P2;PMS_P1;PMS_P2;Temp;Humidity;BMP_temperature;BMP_pressure;BME280_temperature;BME280_humidity;BME280_pressure;Samples;Min_cycle;Max_cycle;Signal;HPM_P1;HPM_P2
2021/07/24 00:00:41;;;;;;;13.63;12.38;;;;;;;;;;5073560;28;20020;-75
2021/07/24 00:03:07;;;;;;;13.95;12.63;;;;;;;;;;5073490;28;20021;-76
2021/07/24 00:05:33;;;;;;;13.35;12.20;;;;;;;;;;5073298;28;20029;-75
2021/07/24 00:07:59;;;;;;;14.25;13.05;;;;;;;;;;5074486;28;20504;-76
2021/07/24 00:10:25;;;;;;;13.77;11.88;;;;;;;;;;5077239;28;20027;-76
2021/07/24 00:12:51;;;;;;;13.90;12.30;;;;;;;;;;5076726;28;20470;-75
2021/07/24 00:15:17;;;;;;;15.02;12.40;;;;;;;;;;5076782;28;20040;-75
2021/07/24 00:17:43;;;;;;;12.68;11.45;;;;;;;;;;5076600;28;20024;-76
2021/07/24 00:20:10;;;;;;;12.82;11.68;;;;;;;;;;5076915;28;20029;-76
2021/07/24 00:22:36;;;;;;;13.15;11.88;;;;;;;;;;5076969;28;20086;-77
2021/07/24 00:25:02;;;;;;;13.93;12.18;;;;;;;;;;5077179;28;20032;-76
2021/07/24 00:27:28;;;;;;;13.25;12.02;;;;;;;;;;5076558;28;20016;-77
2021/07/24 00:29:54;;;;;;;18.40;12.88;;;;;;;;;;5076734;28;20024;-77
2021/07/24 00:32:20;;;;;;;13.57;12.38;;;;;;;;;;5076681;28;20108;-77
2021/07/24 00:34:46;;;;;;;14.75;12.40;;;;;;;;;;5076388;28;20135;-76
2021/07/24 00:37:13;;;;;;;26.55;13.82;;;;;;;;;;5076649;28;20137;-76
2021/07/24 00:39:39;;;;;;;14.93;12.48;;;;;;;;;;5077018;28;20024;-76
2021/07/24 00:42:22;;;;;;;15.10;11.93;;;;;;;;;;5076617;28;20078;-76
2021/07/24 00:44:49;;;;;;;16.35;12.40;;;;;;;;;;5077229;28;20032;-76
2021/07/24 00:47:16;;;;;;;13.02;11.82;;;;;;;;;;5076814;28;20032;-76
2021/07/24 00:49:42;;;;;;;13.88;12.57;;;;;;;;;;5076176;28;20031;-77
2021/07/24 00:52:10;;;;;;;14.00;12.65;;;;;;;;;;5076211;28;20053;-76
2021/07/24 00:54:38;;;;;;;14.88;11.27;;;;;;;;;;5076031;28;20024;-76
2021/07/24 00:57:04;;;;;;;13.43;12.07;;;;;;;;;;5076549;28;20025;-76
2021/07/24 00:59:30;;;;;;;14.95;11.98;;;;;;;;;;5076445;28;20386;-76
2021/07/24 01:01:57;;;;;;;12.45;11.25;;;;;;;;;;5076120;28;20041;-77
2021/07/24 01:04:23;;;;;;;14.00;12.57;;;;;;;;;;5076481;28;20036;-75
2021/07/24 01:06:49;;;;;;;14.75;13.18;;;;;;;;;;5075996;28;20052;-75
2021/07/24 01:09:15;;;;;;;13.30;10.98;;;;;;;;;;5075904;28;20067;-77
2021/07/24 01:11:41;;;;;;;12.70;11.45;;;;;;;;;;5075904;28;20112;-77
2021/07/24 01:14:08;;;;;;;13.90;12.27;;;;;;;;;;5076642;28;20028;-76
2021/07/24 01:16:34;;;;;;;11.98;10.90;;;;;;;;;;5076151;28;20029;-76
2021/07/24 01:19:00;;;;;;;13.93;12.07;;;;;;;;;;5075992;28;20109;-77
2021/07/24 01:21:26;;;;;;;14.07;12.60;;;;;;;;;;5075666;28;20021;-77
2021/07/24 01:23:52;;;;;;;13.43;12.23;;;;;;;;;;5075591;28;20028;-76
2021/07/24 01:26:34;;;;;;;12.85;11.75;;;;;;;;;;5076419;28;20024;-76
2021/07/24 01:29:00;;;;;;;12.32;11.25;;;;;;;;;;5076308;28;20383;-77
2021/07/24 01:31:26;;;;;;;13.07;11.80;;;;;;;;;;5075926;28;20107;-77
2021/07/24 01:33:53;;;;;;;13.45;12.25;;;;;;;;;;5075469;28;20460;-77
2021/07/24 01:36:19;;;;;;;13.40;11.35;;;;;;;;;;5075341;28;20029;-77
2021/07/24 01:38:45;;;;;;;13.05;11.85;;;;;;;;;;5076068;28;20036;-76
2021/07/24 01:41:11;;;;;;;12.80;11.68;;;;;;;;;;5075630;28;20032;-76
2021/07/24 01:43:37;;;;;;;13.52;12.20;;;;;;;;;;5075524;28;20032;-76
2021/07/24 01:46:04;;;;;;;14.52;11.43;;;;;;;;;;5075144;28;20021;-77
2021/07/24 01:48:43;;;;;;;13.90;11.90;;;;;;;;;;5075766;28;20078;-76
2021/07/24 01:53:57;;;;;;;13.35;12.05;;;;;;;;;;5073666;28;20052;-77
2021/07/24 01:56:24;;;;;;;11.85;10.85;;;;;;;;;;5075269;28;20025;-77
2021/07/24 01:58:50;;;;;;;12.00;10.90;;;;;;;;;;5075586;28;20032;-77
2021/07/24 02:01:18;;;;;;;13.18;11.88;;;;;;;;;;5075014;28;20028;-77
2021/07/24 02:03:45;;;;;;;16.48;10.90;;;;;;;;;;5074500;28;20480;-78
2021/07/24 02:06:12;;;;;;;13.75;11.90;;;;;;;;;;5075127;28;20116;-76
2021/07/24 02:08:38;;;;;;;12.73;11.63;;;;;;;;;;5075302;28;20048;-77
2021/07/24 02:11:05;;;;;;;12.23;10.80;;;;;;;;;;5075200;28;20115;-77
2021/07/24 02:13:31;;;;;;;13.95;12.60;;;;;;;;;;5074992;28;20020;-77
2021/07/24 02:15:57;;;;;;;12.93;11.52;;;;;;;;;;5074728;28;20418;-78
2021/07/24 02:18:23;;;;;;;12.18;11.02;;;;;;;;;;5074575;28;20036;-78
2021/07/24 02:20:49;;;;;;;14.05;12.00;;;;;;;;;;5074845;28;20036;-77
2021/07/24 02:23:16;;;;;;;12.43;11.23;;;;;;;;;;5075153;28;20043;-77
2021/07/24 02:25:42;;;;;;;12.20;10.98;;;;;;;;;;5074596;28;20025;-78
2021/07/24 02:28:08;;;;;;;13.23;11.93;;;;;;;;;;5074506;28;20478;-78
2021/07/24 02:30:34;;;;;;;15.32;11.95;;;;;;;;;;5074215;28;20360;-78
2021/07/24 02:33:00;;;;;;;15.77;11.00;;;;;;;;;;5074210;28;20034;-78
2021/07/24 02:35:26;;;;;;;11.75;10.55;;;;;;;;;;5074306;28;20029;-78
2021/07/24 02:37:52;;;;;;;13.13;10.38;;;;;;;;;;5074169;28;20032;-77
2021/07/24 02:40:20;;;;;;;12.38;11.07;;;;;;;;;;5074584;28;20029;-77
2021/07/24 02:42:46;;;;;;;12.88;10.57;;;;;;;;;;5074538;28;20416;-77
2021/07/24 02:45:12;;;;;;;13.20;11.90;;;;;;;;;;5074517;28;20429;-78
2021/07/24 02:47:38;;;;;;;12.02;10.90;;;;;;;;;;5074514;28;20025;-78
2021/07/24 02:50:05;;;;;;;12.35;11.35;;;;;;;;;;5074202;28;20092;-77
2021/07/24 02:52:31;;;;;;;12.73;11.48;;;;;;;;;;5074713;28;20053;-78
2021/07/24 02:54:57;;;;;;;11.90;10.80;;;;;;;;;;5074145;28;20064;-77
2021/07/24 02:57:23;;;;;;;14.35;11.30;;;;;;;;;;5074422;28;20028;-77
2021/07/24 02:59:49;;;;;;;11.88;10.70;;;;;;;;;;5074020;28;20024;-78
2021/07/24 03:02:15;;;;;;;11.55;10.45;;;;;;;;;;5073963;28;20482;-77
2021/07/24 03:04:41;;;;;;;12.48;11.00;;;;;;;;;;5074573;28;20025;-78
2021/07/24 03:07:08;;;;;;;12.45;11.35;;;;;;;;;;5074103;28;20100;-77
2021/07/24 03:09:34;;;;;;;12.52;10.80;;;;;;;;;;5074570;28;20032;-77
2021/07/24 03:12:00;;;;;;;13.00;10.70;;;;;;;;;;5073800;28;20532;-78
2021/07/24 03:14:26;;;;;;;13.30;11.90;;;;;;;;;;5074182;28;20497;-77
2021/07/24 03:16:52;;;;;;;14.25;12.95;;;;;;;;;;5074268;28;20028;-78
2021/07/24 03:19:18;;;;;;;12.43;11.35;;;;;;;;;;5074462;28;20052;-77
2021/07/24 03:21:44;;;;;;;12.23;11.05;;;;;;;;;;5073794;28;20520;-77
2021/07/24 03:24:10;;;;;;;14.00;12.70;;;;;;;;;;5074344;28;20470;-77
2021/07/24 03:26:36;;;;;;;12.73;11.50;;;;;;;;;;5074007;28;20036;-77
2021/07/24 03:29:02;;;;;;;11.25;10.25;;;;;;;;;;5073642;28;20090;-77
2021/07/24 03:31:28;;;;;;;12.25;11.00;;;;;;;;;;5073651;28;20056;-78
2021/07/24 03:33:54;;;;;;;12.95;11.38;;;;;;;;;;5073766;28;20035;-77
2021/07/24 03:36:20;;;;;;;12.43;11.32;;;;;;;;;;5074539;28;20024;-77
2021/07/24 03:38:46;;;;;;;14.32;12.93;;;;;;;;;;5073950;28;20024;-78
2021/07/24 03:41:12;;;;;;;13.65;12.45;;;;;;;;;;5074290;28;20059;-78
2021/07/24 03:43:41;;;;;;;13.00;11.82;;;;;;;;;;5076628;28;20056;-77
2021/07/24 03:46:13;;;;;;;20.45;11.68;;;;;;;;;;5077583;28;20031;-78
2021/07/24 03:48:39;;;;;;;13.48;12.20;;;;;;;;;;5077830;28;20024;-78
2021/07/24 03:51:05;;;;;;;14.10;12.73;;;;;;;;;;5077957;28;20462;-77
2021/07/24 03:53:31;;;;;;;12.23;11.02;;;;;;;;;;5077801;28;20493;-77
2021/07/24 03:55:57;;;;;;;13.00;11.70;;;;;;;;;;5077244;28;20462;-77
2021/07/24 03:58:23;;;;;;;14.45;12.75;;;;;;;;;;5077085;28;20437;-78
2021/07/24 04:00:49;;;;;;;12.77;11.65;;;;;;;;;;5077241;28;20543;-78
2021/07/24 04:03:18;;;;;;;11.85;10.73;;;;;;;;;;5077370;28;20405;-78
2021/07/24 04:05:44;;;;;;;12.45;11.38;;;;;;;;;;5077095;28;20031;-76
2021/07/24 04:08:10;;;;;;;12.65;11.45;;;;;;;;;;5077109;28;20489;-78
2021/07/24 04:10:36;;;;;;;13.35;11.40;;;;;;;;;;5077444;28;20024;-77
2021/07/24 04:13:03;;;;;;;14.05;12.65;;;;;;;;;;5077260;28;20029;-76
2021/07/24 04:15:29;;;;;;;12.38;11.18;;;;;;;;;;5076927;28;20036;-75
2021/07/24 04:17:55;;;;;;;11.98;10.88;;;;;;;;;;5076906;28;20073;-75
2021/07/24 04:20:21;;;;;;;13.60;11.80;;;;;;;;;;5077239;28;20024;-75
2021/07/24 04:22:48;;;;;;;12.52;11.25;;;;;;;;;;5077159;28;20029;-75
2021/07/24 04:25:14;;;;;;;11.77;10.70;;;;;;;;;;5076855;28;20374;-75
2021/07/24 04:27:41;;;;;;;11.65;10.57;;;;;;;;;;5076761;28;20024;-76
2021/07/24 04:30:07;;;;;;;13.02;11.57;;;;;;;;;;5077442;28;20060;-75
2021/07/24 04:32:33;;;;;;;12.18;11.07;;;;;;;;;;5076796;28;20032;-76
2021/07/24 04:34:59;;;;;;;12.45;11.23;;;;;;;;;;5077093;28;20394;-77
2021/07/24 04:37:25;;;;;;;12.45;10.82;;;;;;;;;;5074161;28;20871;-79
2021/07/24 04:39:52;;;;;;;11.57;10.43;;;;;;;;;;5077179;28;20033;-77
2021/07/24 04:42:18;;;;;;;12.70;11.02;;;;;;;;;;5077658;28;20078;-78
2021/07/24 04:44:44;;;;;;;16.38;11.80;;;;;;;;;;5076750;28;20382;-76
2021/07/24 04:47:10;;;;;;;12.27;11.02;;;;;;;;;;5076335;28;20021;-77
2021/07/24 04:49:38;;;;;;;12.60;10.98;;;;;;;;;;5077470;28;20549;-82
2021/07/24 04:52:04;;;;;;;12.02;10.93;;;;;;;;;;5077097;28;20061;-78
2021/07/24 04:54:30;;;;;;;13.35;12.07;;;;;;;;;;5075728;28;20039;-76
2021/07/24 04:56:59;;;;;;;16.23;10.70;;;;;;;;;;5076081;28;20107;-78
2021/07/24 04:59:25;;;;;;;13.20;11.98;;;;;;;;;;5076893;28;20370;-77
2021/07/24 05:01:51;;;;;;;12.60;11.18;;;;;;;;;;5076056;28;20021;-75
2021/07/24 05:04:17;;;;;;;13.48;12.27;;;;;;;;;;5077222;28;20048;-75
2021/07/24 05:06:43;;;;;;;13.93;11.07;;;;;;;;;;5076866;28;20051;-77
2021/07/24 05:09:09;;;;;;;12.55;11.38;;;;;;;;;;5094635;28;20028;-79
2021/07/24 05:11:35;;;;;;;11.93;10.82;;;;;;;;;;5096743;28;20472;-80
2021/07/24 05:14:01;;;;;;;11.52;10.40;;;;;;;;;;5096629;28;20050;-77
2021/07/24 05:16:27;;;;;;;12.07;10.98;;;;;;;;;;5097372;28;20129;-73
2021/07/24 05:18:56;;;;;;;13.07;11.88;;;;;;;;;;5094848;28;20130;-74
2021/07/24 05:21:22;;;;;;;12.43;11.23;;;;;;;;;;5096992;28;20027;-81
2021/07/24 05:23:48;;;;;;;14.40;12.88;;;;;;;;;;5096996;28;20073;-78
2021/07/24 05:26:14;;;;;;;11.73;10.63;;;;;;;;;;5097041;28;20024;-79
2021/07/24 05:28:41;;;;;;;13.27;12.13;;;;;;;;;;5080305;28;20093;-77
2021/07/24 05:31:14;;;;;;;12.65;11.35;;;;;;;;;;5077410;28;20031;-77
2021/07/24 05:33:40;;;;;;;11.65;10.48;;;;;;;;;;5077027;28;20028;-76
2021/07/24 05:36:06;;;;;;;12.10;10.98;;;;;;;;;;5077118;28;20048;-75
2021/07/24 05:38:32;;;;;;;12.18;10.95;;;;;;;;;;5077031;28;20024;-76
2021/07/24 05:41:00;;;;;;;11.77;10.60;;;;;;;;;;5077230;28;20020;-77
2021/07/24 05:43:26;;;;;;;19.13;11.45;;;;;;;;;;5077146;28;20024;-80
2021/07/24 05:45:53;;;;;;;15.57;14.07;;;;;;;;;;5076215;28;20416;-75
2021/07/24 05:48:19;;;;;;;13.25;12.05;;;;;;;;;;5075466;28;20024;-77
2021/07/24 05:50:45;;;;;;;13.85;12.50;;;;;;;;;;5076227;28;20025;-77
2021/07/24 05:53:11;;;;;;;12.85;11.75;;;;;;;;;;5076848;28;20059;-77
2021/07/24 05:55:38;;;;;;;15.65;14.05;;;;;;;;;;5075283;28;20420;-71
2021/07/24 05:58:04;;;;;;;15.88;14.38;;;;;;;;;;5074161;28;20138;-71
2021/07/24 06:00:30;;;;;;;14.80;13.43;;;;;;;;;;5076271;28;20075;-74
2021/07/24 06:02:56;;;;;;;14.35;13.10;;;;;;;;;;5076754;28;20531;-74
2021/07/24 06:05:23;;;;;;;15.30;13.73;;;;;;;;;;5075379;28;20033;-70
2021/07/24 06:07:49;;;;;;;15.55;12.45;;;;;;;;;;5074404;28;20016;-71
2021/07/24 06:10:15;;;;;;;14.85;13.18;;;;;;;;;;5095053;28;20028;-76
2021/07/24 06:12:41;;;;;;;15.38;11.68;;;;;;;;;;5076991;28;20031;-73
2021/07/24 06:15:07;;;;;;;12.90;11.80;;;;;;;;;;5075742;28;20028;-72
2021/07/24 06:17:33;;;;;;;14.43;12.93;;;;;;;;;;5075257;28;20024;-74
2021/07/24 06:19:59;;;;;;;13.23;11.68;;;;;;;;;;5075651;28;20020;-75
2021/07/24 06:22:25;;;;;;;14.57;13.00;;;;;;;;;;5074241;28;20119;-77
2021/07/24 06:24:51;;;;;;;14.65;12.57;;;;;;;;;;5074348;28;20029;-76
2021/07/24 06:27:17;;;;;;;15.05;12.20;;;;;;;;;;5074743;28;20017;-76
2021/07/24 06:29:44;;;;;;;15.65;12.18;;;;;;;;;;5075344;28;20470;-76
2021/07/24 06:32:10;;;;;;;13.77;12.10;;;;;;;;;;5076229;28;20025;-78
2021/07/24 06:34:36;;;;;;;14.20;12.85;;;;;;;;;;5075454;28;20028;-80
2021/07/24 06:37:03;;;;;;;13.75;12.38;;;;;;;;;;5074854;28;20029;-76
2021/07/24 06:39:29;;;;;;;12.75;11.45;;;;;;;;;;5075451;28;20052;-74
2021/07/24 06:41:55;;;;;;;13.70;12.27;;;;;;;;;;5075112;28;20366;-75
2021/07/24 06:44:21;;;;;;;14.18;11.90;;;;;;;;;;5074629;28;20052;-73
2021/07/24 06:46:47;;;;;;;13.10;11.68;;;;;;;;;;5072565;28;20462;-76
2021/07/24 06:49:14;;;;;;;13.75;11.85;;;;;;;;;;5074237;28;20374;-72
2021/07/24 06:51:40;;;;;;;13.40;12.10;;;;;;;;;;5073339;28;20052;-76
2021/07/24 06:54:06;;;;;;;25.02;12.30;;;;;;;;;;5073329;28;20049;-76
2021/07/24 06:56:33;;;;;;;13.50;12.18;;;;;;;;;;5074222;28;20060;-78
2021/07/24 06:58:59;;;;;;;13.90;12.13;;;;;;;;;;5074096;28;20032;-76
2021/07/24 07:01:25;;;;;;;21.13;11.55;;;;;;;;;;5073687;28;20351;-77
2021/07/24 07:03:51;;;;;;;16.23;11.65;;;;;;;;;;5073775;28;20365;-76
2021/07/24 07:06:17;;;;;;;14.65;11.63;;;;;;;;;;5073660;28;20020;-74
2021/07/24 07:08:43;;;;;;;12.18;10.63;;;;;;;;;;5073675;28;20024;-74
2021/07/24 07:11:09;;;;;;;17.48;13.18;;;;;;;;;;5073635;28;20085;-75
2021/07/24 07:13:35;;;;;;;13.93;11.05;;;;;;;;;;5073742;28;20020;-75
2021/07/24 07:16:08;;;;;;;15.85;12.75;;;;;;;;;;5073837;28;20072;-76
2021/07/24 07:18:35;;;;;;;14.02;12.77;;;;;;;;;;5073527;28;20028;-76
2021/07/24 07:21:01;;;;;;;17.75;13.18;;;;;;;;;;5074092;28;20381;-71
2021/07/24 07:23:27;;;;;;;15.90;14.32;;;;;;;;;;5072918;28;20446;-76
2021/07/24 07:25:53;;;;;;;13.90;12.48;;;;;;;;;;5073108;28;20033;-75
2021/07/24 07:28:19;;;;;;;13.90;12.02;;;;;;;;;;5073140;28;20020;-73
2021/07/24 07:30:45;;;;;;;18.75;11.63;;;;;;;;;;5072927;28;20437;-75
2021/07/24 07:33:11;;;;;;;14.13;11.52;;;;;;;;;;5073729;28;20047;-75
2021/07/24 07:35:37;;;;;;;14.50;12.45;;;;;;;;;;5073248;28;20032;-76
2021/07/24 07:38:03;;;;;;;13.48;11.35;;;;;;;;;;5072467;28;20032;-76
2021/07/24 07:40:30;;;;;;;13.05;11.82;;;;;;;;;;5073369;28;20020;-75
2021/07/24 07:42:56;;;;;;;17.77;12.07;;;;;;;;;;5073849;28;20029;-78
2021/07/24 07:45:22;;;;;;;16.45;11.35;;;;;;;;;;5073551;28;20017;-78
2021/07/24 07:47:48;;;;;;;17.52;11.35;;;;;;;;;;5073547;28;20348;-78
2021/07/24 07:50:14;;;;;;;12.63;11.38;;;;;;;;;;5073319;28;20492;-78
2021/07/24 07:52:40;;;;;;;12.98;10.95;;;;;;;;;;5073272;28;20072;-78
2021/07/24 07:55:06;;;;;;;16.85;11.75;;;;;;;;;;5073732;28;20048;-78
2021/07/24 07:57:32;;;;;;;17.05;11.40;;;;;;;;;;5073160;28;20021;-77
2021/07/24 07:59:58;;;;;;;12.13;10.90;;;;;;;;;;5073058;28;20494;-76
2021/07/24 08:02:24;;;;;;;15.20;11.68;;;;;;;;;;5073329;28;20024;-78
2021/07/24 08:04:51;;;;;;;11.65;10.45;;;;;;;;;;5073051;28;20035;-76
2021/07/24 08:07:17;;;;;;;11.45;10.32;;;;;;;;;;5073035;28;20063;-77
2021/07/24 08:09:43;;;;;;;13.95;10.27;;;;;;;;;;5072871;28;20025;-77
2021/07/24 08:12:09;;;;;;;12.25;11.05;;;;;;;;;;5073011;28;20017;-77
2021/07/24 08:14:35;;;;;;;12.02;10.90;;;;;;;;;;5073537;28;20029;-79
2021/07/24 08:17:01;;;;;;;12.50;11.45;;;;;;;;;;5073566;28;20031;-79
2021/07/24 08:19:27;;;;;;;11.30;10.10;;;;;;;;;;5073396;28;20039;-79
2021/07/24 08:21:53;;;;;;;13.55;12.07;;;;;;;;;;5072470;28;20028;-78
2021/07/24 08:24:19;;;;;;;11.88;10.55;;;;;;;;;;5073850;28;20027;-78
2021/07/24 08:26:45;;;;;;;12.95;11.02;;;;;;;;;;5074345;28;20115;-78
2021/07/24 08:29:11;;;;;;;12.25;11.15;;;;;;;;;;5073994;28;20021;-78
2021/07/24 08:31:37;;;;;;;13.35;10.02;;;;;;;;;;5086819;28;20026;-78
2021/07/24 08:34:05;;;;;;;13.45;10.98;;;;;;;;;;5096939;28;20530;-79
2021/07/24 08:36:31;;;;;;;12.95;9.75;;;;;;;;;;5097869;28;20020;-78
2021/07/24 08:38:57;;;;;;;12.57;11.38;;;;;;;;;;5097353;28;20026;-78
2021/07/24 08:41:23;;;;;;;14.55;10.52;;;;;;;;;;5098464;28;20028;-79
2021/07/24 08:43:49;;;;;;;15.82;11.35;;;;;;;;;;5097888;28;20049;-86
2021/07/24 08:46:15;;;;;;;21.60;10.07;;;;;;;;;;5098808;28;20035;-77
2021/07/24 08:48:41;;;;;;;12.07;10.32;;;;;;;;;;5098666;28;20411;-81
2021/07/24 08:51:08;;;;;;;17.25;11.38;;;;;;;;;;5099079;28;20047;-85
2021/07/24 08:53:34;;;;;;;15.20;10.35;;;;;;;;;;5098611;28;20051;-86
2021/07/24 08:56:02;;;;;;;26.23;11.85;;;;;;;;;;5099295;28;20036;-80
2021/07/24 08:58:35;;;;;;;11.85;10.18;;;;;;;;;;5097942;28;20023;-87
2021/07/24 09:01:02;;;;;;;10.20;9.30;;;;;;;;;;5099337;28;20077;-78
2021/07/24 09:03:28;;;;;;;22.00;10.43;;;;;;;;;;5099167;28;20107;-83
2021/07/24 09:05:54;;;;;;;9.73;8.82;;;;;;;;;;5097150;28;20419;-81
2021/07/24 09:08:21;;;;;;;11.70;10.23;;;;;;;;;;5097386;28;20020;-80
2021/07/24 09:10:47;;;;;;;10.57;9.50;;;;;;;;;;5098478;28;20473;-86
2021/07/24 09:13:14;;;;;;;13.90;9.65;;;;;;;;;;5100576;28;20482;-90
2021/07/24 09:15:40;;;;;;;9.55;8.48;;;;;;;;;;5099684;28;20035;-87
2021/07/24 09:18:06;;;;;;;17.45;9.57;;;;;;;;;;5099422;28;20020;-84
2021/07/24 09:20:32;;;;;;;15.07;8.93;;;;;;;;;;5099660;28;20030;-88
2021/07/24 09:22:58;;;;;;;12.20;9.60;;;;;;;;;;5097903;28;20412;-83
2021/07/24 09:25:24;;;;;;;9.52;8.68;;;;;;;;;;5099829;28;20016;-89
2021/07/24 09:27:51;;;;;;;11.30;9.48;;;;;;;;;;5097346;28;20024;-76
2021/07/24 09:30:29;;;;;;;10.07;8.68;;;;;;;;;;5098224;28;20063;-81
2021/07/24 09:33:15;;;;;;;11.10;9.18;;;;;;;;;;5097784;28;20407;-78
2021/07/24 09:35:42;;;;;;;13.68;9.07;;;;;;;;;;5098265;28;20032;-80
2021/07/24 09:38:17;;;;;;;17.88;8.80;;;;;;;;;;5097018;28;20050;-75
2021/07/24 09:40:44;;;;;;;8.80;8.00;;;;;;;;;;5096820;28;20035;-76
2021/07/24 09:43:30;;;;;;;9.82;8.77;;;;;;;;;;5097063;28;20446;-80
2021/07/24 09:46:12;;;;;;;10.68;8.68;;;;;;;;;;5097970;28;20016;-86
2021/07/24 09:48:38;;;;;;;22.98;10.10;;;;;;;;;;5099581;28;20462;-80
2021/07/24 09:51:04;;;;;;;12.15;9.00;;;;;;;;;;5099165;28;20115;-77
2021/07/24 09:53:38;;;;;;;9.13;8.32;;;;;;;;;;5098408;28;20120;-77
2021/07/24 09:56:04;;;;;;;11.50;8.50;;;;;;;;;;5098065;28;20032;-77
2021/07/24 09:58:31;;;;;;;9.35;8.35;;;;;;;;;;5098177;28;20055;-78
2021/07/24 10:01:04;;;;;;;14.43;8.27;;;;;;;;;;5097458;28;20369;-84
2021/07/24 10:03:31;;;;;;;8.48;7.68;;;;;;;;;;5095551;28;20020;-81
2021/07/24 10:05:57;;;;;;;9.35;8.50;;;;;;;;;;5094641;28;20035;-77
2021/07/24 10:08:23;;;;;;;12.75;7.50;;;;;;;;;;5095497;28;20074;-77
2021/07/24 10:10:51;;;;;;;9.32;8.32;;;;;;;;;;5094511;28;20026;-77
2021/07/24 10:13:17;;;;;;;12.88;7.95;;;;;;;;;;5095567;28;20028;-76
2021/07/24 10:15:44;;;;;;;9.25;8.35;;;;;;;;;;5094445;28;20448;-79
2021/07/24 10:18:10;;;;;;;11.77;8.68;;;;;;;;;;5095439;28;20369;-80
2021/07/24 10:20:38;;;;;;;9.05;8.05;;;;;;;;;;5094893;28;20054;-78
2021/07/24 10:23:04;;;;;;;9.55;8.57;;;;;;;;;;5094938;28;20378;-79
2021/07/24 10:25:30;;;;;;;15.98;7.30;;;;;;;;;;5094692;28;20028;-79
2021/07/24 10:27:56;;;;;;;10.23;8.93;;;;;;;;;;5094883;28;20024;-77
2021/07/24 10:30:29;;;;;;;8.93;8.13;;;;;;;;;;5094809;28;20039;-80
2021/07/24 10:32:56;;;;;;;11.40;8.95;;;;;;;;;;5094847;28;20046;-77
2021/07/24 10:35:37;;;;;;;15.50;9.52;;;;;;;;;;5094252;28;20511;-82
2021/07/24 10:38:23;;;;;;;10.35;9.23;;;;;;;;;;5094146;28;20024;-79
2021/07/24 10:40:49;;;;;;;8.88;8.02;;;;;;;;;;5094100;28;20402;-78
2021/07/24 10:43:35;;;;;;;8.75;7.95;;;;;;;;;;5094473;28;20028;-78
2021/07/24 10:46:01;;;;;;;9.95;7.93;;;;;;;;;;5093635;28;20043;-79
2021/07/24 10:48:27;;;;;;;11.30;8.10;;;;;;;;;;5094034;28;20036;-79
2021/07/24 10:51:12;;;;;;;8.63;7.80;;;;;;;;;;5094579;28;20032;-74
2021/07/24 10:53:58;;;;;;;9.23;8.32;;;;;;;;;;5093804;28;20396;-78
2021/07/24 10:56:39;;;;;;;9.38;8.35;;;;;;;;;;5093576;28;20058;-81
2021/07/24 10:59:21;;;;;;;8.57;7.70;;;;;;;;;;5094790;28;20047;-82
2021/07/24 11:01:48;;;;;;;16.65;10.43;;;;;;;;;;5094265;28;20035;-83
2021/07/24 11:04:34;;;;;;;19.80;10.35;;;;;;;;;;5094367;28;20101;-81
2021/07/24 11:07:21;;;;;;;10.50;8.55;;;;;;;;;;5093450;28;20024;-82
2021/07/24 11:09:47;;;;;;;12.15;9.15;;;;;;;;;;5093080;28;20028;-82
2021/07/24 11:12:14;;;;;;;12.02;8.75;;;;;;;;;;5094774;28;20039;-81
2021/07/24 11:14:45;;;;;;;12.93;9.15;;;;;;;;;;5093828;28;20028;-88
2021/07/24 11:17:12;;;;;;;10.13;8.88;;;;;;;;;;5094526;28;20033;-88
2021/07/24 11:19:40;;;;;;;13.40;9.35;;;;;;;;;;5093551;28;20024;-86
2021/07/24 11:22:09;;;;;;;10.25;8.90;;;;;;;;;;5093950;28;20028;-82
2021/07/24 11:24:35;;;;;;;15.48;7.63;;;;;;;;;;5094306;28;20030;-85
2021/07/24 11:27:01;;;;;;;16.17;9.27;;;;;;;;;;5093854;28;20017;-89
2021/07/24 11:29:27;;;;;;;13.68;9.07;;;;;;;;;;5094212;28;20034;-84
2021/07/24 11:31:53;;;;;;;8.68;7.78;;;;;;;;;;5093739;28;20020;-87
2021/07/24 11:34:20;;;;;;;9.90;8.63;;;;;;;;;;5093450;28;20497;-86
2021/07/24 11:36:50;;;;;;;18.80;10.15;;;;;;;;;;5094365;28;20082;-87
2021/07/24 11:39:16;;;;;;;11.70;10.20;;;;;;;;;;5093816;28;20028;-82
2021/07/24 11:41:42;;;;;;;10.93;9.82;;;;;;;;;;5093780;28;20492;-79
2021/07/24 11:44:08;;;;;;;9.93;8.73;;;;;;;;;;5093624;28;20028;-76
2021/07/24 11:46:34;;;;;;;14.88;10.85;;;;;;;;;;5093996;28;20020;-76
2021/07/24 11:49:02;;;;;;;14.77;9.55;;;;;;;;;;5093638;28;20024;-78
2021/07/24 11:51:28;;;;;;;11.70;10.18;;;;;;;;;;5091525;28;20032;-79
2021/07/24 11:53:54;;;;;;;9.20;8.35;;;;;;;;;;5091870;28;20047;-77
2021/07/24 11:56:20;;;;;;;10.90;9.75;;;;;;;;;;5093143;28;20016;-78
2021/07/24 11:58:52;;;;;;;10.77;9.75;;;;;;;;;;5093020;28;20044;-79
2021/07/24 12:01:19;;;;;;;10.52;9.63;;;;;;;;;;5084664;28;20052;-78
2021/07/24 12:03:45;;;;;;;9.25;8.40;;;;;;;;;;5083519;28;20024;-79
2021/07/24 12:06:12;;;;;;;9.82;8.88;;;;;;;;;;5087861;28;20020;-78
2021/07/24 12:08:40;;;;;;;11.55;10.45;;;;;;;;;;5086239;28;20017;-79
2021/07/24 12:11:11;;;;;;;13.02;9.05;;;;;;;;;;5085987;28;20359;-76
2021/07/24 12:13:37;;;;;;;9.70;8.70;;;;;;;;;;5094339;28;20016;-78
2021/07/24 12:16:05;;;;;;;15.27;9.15;;;;;;;;;;5095992;28;20048;-77
2021/07/24 12:18:41;;;;;;;9.57;8.70;;;;;;;;;;5096640;28;20047;-78
2021/07/24 12:21:11;;;;;;;8.98;8.07;;;;;;;;;;5096518;28;20016;-80
2021/07/24 12:23:43;;;;;;;16.98;8.50;;;;;;;;;;5085605;28;20055;-77
2021/07/24 12:26:13;;;;;;;11.93;9.32;;;;;;;;;;5076149;28;20355;-78
2021/07/24 12:28:40;;;;;;;11.10;10.00;;;;;;;;;;5075696;28;20141;-79
2021/07/24 12:31:23;;;;;;;9.70;8.48;;;;;;;;;;5076717;28;20258;-76
2021/07/24 12:33:50;;;;;;;17.10;9.23;;;;;;;;;;5076294;28;20025;-78
2021/07/24 12:36:16;;;;;;;11.30;9.68;;;;;;;;;;5076255;28;20371;-76
2021/07/24 12:38:42;;;;;;;10.10;9.20;;;;;;;;;;5076274;28;20020;-76
2021/07/24 12:41:08;;;;;;;17.20;8.98;;;;;;;;;;5076543;28;20025;-76
2021/07/24 12:43:40;;;;;;;15.32;10.82;;;;;;;;;;5076111;28;20024;-76
2021/07/24 12:46:14;;;;;;;12.43;8.63;;;;;;;;;;5077326;28;20101;-77
2021/07/24 12:48:42;;;;;;;9.55;8.45;;;;;;;;;;5077381;28;20028;-78
2021/07/24 12:51:08;;;;;;;9.52;8.50;;;;;;;;;;5076587;28;20028;-78
2021/07/24 12:53:35;;;;;;;10.75;9.05;;;;;;;;;;5075797;28;20068;-72
2021/07/24 12:56:01;;;;;;;12.38;9.73;;;;;;;;;;5075532;28;20043;-72
2021/07/24 12:58:27;;;;;;;15.45;10.63;;;;;;;;;;5075382;28;20101;-71
2021/07/24 13:00:53;;;;;;;25.60;12.13;;;;;;;;;;5075220;28;20136;-71
2021/07/24 13:03:19;;;;;;;21.42;11.52;;;;;;;;;;5075358;28;20467;-71
2021/07/24 13:05:45;;;;;;;13.05;11.57;;;;;;;;;;5075431;28;20481;-70
2021/07/24 13:08:12;;;;;;;18.50;11.57;;;;;;;;;;5075072;28;20140;-70
2021/07/24 13:10:38;;;;;;;15.52;11.88;;;;;;;;;;5075735;28;20039;-70
2021/07/24 13:13:04;;;;;;;18.35;12.05;;;;;;;;;;5075761;28;20032;-71
2021/07/24 13:15:30;;;;;;;17.00;11.10;;;;;;;;;;5074624;28;20600;-71
2021/07/24 13:17:56;;;;;;;11.70;9.60;;;;;;;;;;5075236;28;20543;-71
2021/07/24 13:20:23;;;;;;;16.90;11.07;;;;;;;;;;5074569;28;20046;-70
2021/07/24 13:22:49;;;;;;;12.95;10.20;;;;;;;;;;5075561;28;20021;-70
2021/07/24 13:25:31;;;;;;;18.77;9.30;;;;;;;;;;5075192;28;20036;-71
2021/07/24 13:30:44;;;;;;;16.20;11.38;;;;;;;;;;5074227;28;20089;-71
2021/07/24 13:33:10;;;;;;;10.48;9.05;;;;;;;;;;5075705;28;20028;-73
2021/07/24 13:35:37;;;;;;;12.07;9.13;;;;;;;;;;5075358;28;20062;-74
2021/07/24 13:38:04;;;;;;;10.32;7.97;;;;;;;;;;5075747;28;20033;-74
2021/07/24 13:40:30;;;;;;;9.90;8.23;;;;;;;;;;5075793;28;20044;-73
2021/07/24 13:43:00;;;;;;;11.15;8.68;;;;;;;;;;5076185;28;20055;-75
2021/07/24 13:45:26;;;;;;;8.88;7.90;;;;;;;;;;5075936;28;20029;-71
2021/07/24 13:47:52;;;;;;;9.18;7.82;;;;;;;;;;5075303;28;20055;-75
2021/07/24 13:50:19;;;;;;;10.88;8.52;;;;;;;;;;5075182;28;20140;-75
2021/07/24 13:52:45;;;;;;;8.70;7.90;;;;;;;;;;5074652;28;20094;-71
2021/07/24 13:55:11;;;;;;;10.07;8.52;;;;;;;;;;5075115;28;20123;-72
2021/07/24 13:57:37;;;;;;;8.38;7.00;;;;;;;;;;5075133;28;20093;-72
2021/07/24 14:00:04;;;;;;;8.18;7.38;;;;;;;;;;5075573;28;20039;-70
2021/07/24 14:02:30;;;;;;;8.27;7.35;;;;;;;;;;5074786;28;20036;-74
2021/07/24 14:04:56;;;;;;;10.18;7.70;;;;;;;;;;5075604;28;20029;-74
2021/07/24 14:07:22;;;;;;;8.45;7.63;;;;;;;;;;5075199;28;20378;-71
2021/07/24 14:09:48;;;;;;;16.73;7.10;;;;;;;;;;5074487;28;20047;-73
2021/07/24 14:12:15;;;;;;;12.00;9.73;;;;;;;;;;5074527;28;20178;-71
2021/07/24 14:14:41;;;;;;;21.17;10.00;;;;;;;;;;5074133;28;20028;-73
2021/07/24 14:17:07;;;;;;;10.13;9.15;;;;;;;;;;5074642;28;20040;-73
2021/07/24 14:19:33;;;;;;;15.43;10.27;;;;;;;;;;5074203;28;20025;-73
2021/07/24 14:21:59;;;;;;;10.05;8.48;;;;;;;;;;5074334;28;20024;-74
2021/07/24 14:24:25;;;;;;;9.98;8.73;;;;;;;;;;5074665;28;20021;-74
2021/07/24 14:26:51;;;;;;;13.88;10.48;;;;;;;;;;5074476;28;20077;-74
2021/07/24 14:29:17;;;;;;;11.13;9.05;;;;;;;;;;5074293;28;20020;-73